createdAt,value
2018-09-20T00:01:48.847Z,5.60
2018-09-20T00:04:24.359Z,7.10
2018-09-20T00:06:55.779Z,7.17
2018-09-20T00:09:25.616Z,8.17
2018-09-20T00:11:55.539Z,7.70
2018-09-20T00:14:25.379Z,7.63
2018-09-20T00:16:56.174Z,8.23
2018-09-20T00:19:26.010Z,8.10
2018-09-20T00:22:00.607Z,7.17
2018-09-20T00:24:41.203Z,8.70
2018-09-20T00:27:15.143Z,8.77
2018-09-20T00:29:49.731Z,8.50
2018-09-20T00:32:19.639Z,8.67
2018-09-20T00:34:50.467Z,8.17
2018-09-20T00:37:25.623Z,7.20
2018-09-20T00:39:56.427Z,7.60
2018-09-20T00:42:26.259Z,7.47
2018-09-20T00:45:04.224Z,6.80
2018-09-20T00:47:35.999Z,8.87
2018-09-20T00:50:06.070Z,7.77
2018-09-20T00:52:35.943Z,8.60
2018-09-20T00:55:09.978Z,8.13
2018-09-20T00:57:47.398Z,7.27
2018-09-20T01:00:23.179Z,8.00
2018-09-20T01:02:56.182Z,8.10
2018-09-20T01:05:26.010Z,8.23
2018-09-20T01:07:55.890Z,9.27
2018-09-20T01:10:25.772Z,7.73
2018-09-20T01:12:56.646Z,8.40
2018-09-20T01:15:26.434Z,8.00
2018-09-20T01:18:00.975Z,9.03
2018-09-20T01:20:40.576Z,9.40
2018-09-20T01:23:10.443Z,9.33
2018-09-20T01:25:40.243Z,8.50
2018-09-20T01:28:10.099Z,8.60
2018-09-20T01:30:47.595Z,9.00
2018-09-20T01:33:23.755Z,8.60
2018-09-20T01:36:06.221Z,9.40
2018-09-20T01:38:36.076Z,8.90
2018-09-20T01:41:09.115Z,10.77
2018-09-20T01:43:44.619Z,9.00
2018-09-20T01:46:20.119Z,9.47
2018-09-20T01:49:03.230Z,9.17
2018-09-20T01:51:38.114Z,8.83
2018-09-20T01:54:15.506Z,9.20
2018-09-20T01:56:50.107Z,9.00
2018-09-20T01:59:25.915Z,9.73
2018-09-20T02:02:00.802Z,9.47
2018-09-20T02:04:33.742Z,9.40
2018-09-20T02:07:04.583Z,9.57
2018-09-20T02:09:42.211Z,9.87
2018-09-20T02:12:12.083Z,9.60
2018-09-20T02:14:41.888Z,9.47
2018-09-20T02:17:11.755Z,8.70
2018-09-20T02:19:43.611Z,9.60
2018-09-20T02:22:15.508Z,10.70
2018-09-20T02:24:45.354Z,8.83
2018-09-20T02:27:15.219Z,11.07
2018-09-20T02:29:45.086Z,10.90
2018-09-20T02:32:15.903Z,9.70
2018-09-20T02:34:46.743Z,10.40
2018-09-20T02:37:22.419Z,10.27
2018-09-20T02:39:52.310Z,10.47
2018-09-20T02:42:26.312Z,10.50
2018-09-20T02:45:06.821Z,10.90
2018-09-20T02:47:41.307Z,10.50
2018-09-20T02:50:16.675Z,10.50
2018-09-20T02:52:47.455Z,11.03
2018-09-20T02:55:17.283Z,11.33
2018-09-20T02:57:48.199Z,10.57
2018-09-20T03:00:22.359Z,11.30
2018-09-20T03:02:57.716Z,11.20
2018-09-20T03:05:27.587Z,10.60
2018-09-20T03:07:57.402Z,11.30
2018-09-20T03:10:27.199Z,11.57
2018-09-20T03:12:58.047Z,11.80
2018-09-20T03:15:31.058Z,12.03
2018-09-20T03:18:04.950Z,12.20
2018-09-20T03:20:50.975Z,12.10
2018-09-20T03:23:25.071Z,12.47
2018-09-20T03:26:12.811Z,12.27
2018-09-20T03:28:52.382Z,12.50
2018-09-20T03:31:32.914Z,12.73
2018-09-20T03:34:19.655Z,12.87
2018-09-20T03:36:49.518Z,12.53
2018-09-20T03:39:22.806Z,12.90
2018-09-20T03:41:59.322Z,14.27
2018-09-20T03:44:31.198Z,13.83
2018-09-20T03:47:08.974Z,15.07
2018-09-20T03:49:38.894Z,14.10
2018-09-20T03:52:15.390Z,13.70
2018-09-20T03:54:59.814Z,13.97
2018-09-20T03:57:32.155Z,13.90
2018-09-20T04:00:05.374Z,14.27
2018-09-20T04:02:54.154Z,14.50
2018-09-20T04:05:34.490Z,13.33
2018-09-20T04:08:10.743Z,13.90
2018-09-20T04:10:40.742Z,13.93
2018-09-20T04:13:11.598Z,13.10
2018-09-20T04:15:47.010Z,15.50
2018-09-20T04:18:22.574Z,15.03
2018-09-20T04:21:08.690Z,14.80
2018-09-20T04:23:38.686Z,13.77
2018-09-20T04:26:10.525Z,14.10
2018-09-20T04:28:45.571Z,15.43
2018-09-20T04:31:17.402Z,15.93
2018-09-20T04:33:47.339Z,16.10
2018-09-20T04:36:20.816Z,13.70
2018-09-20T04:39:09.138Z,14.50
2018-09-20T04:41:38.966Z,14.80
2018-09-20T04:44:18.957Z,14.13
2018-09-20T04:46:50.246Z,15.40
2018-09-20T04:49:22.135Z,14.03
2018-09-20T04:51:53.506Z,15.47
2018-09-20T04:54:23.403Z,14.43
2018-09-20T04:56:58.870Z,15.00
2018-09-20T04:59:36.610Z,15.97
2018-09-20T05:02:10.551Z,16.03
2018-09-20T05:04:59.279Z,15.97
2018-09-20T05:07:29.084Z,17.23
2018-09-20T05:09:58.919Z,16.13
2018-09-20T05:12:49.075Z,16.97
2018-09-20T05:15:36.366Z,15.73
2018-09-20T05:18:09.092Z,16.50
2018-09-20T05:20:46.671Z,17.30
2018-09-20T05:23:18.450Z,15.43
2018-09-20T05:28:59.489Z,15.07
2018-09-20T05:31:55.414Z,17.30
2018-09-20T05:34:27.234Z,15.80
2018-09-20T05:37:07.143Z,15.30
2018-09-20T05:39:53.555Z,16.03
2018-09-20T05:42:28.322Z,16.53
2018-09-20T05:44:59.127Z,16.30
2018-09-20T05:47:40.997Z,18.80
2018-09-20T05:50:25.434Z,19.70
2018-09-20T05:53:00.527Z,18.83
2018-09-20T05:55:38.246Z,17.27
2018-09-20T05:58:26.722Z,18.17
2018-09-20T06:01:03.174Z,18.47
2018-09-20T06:06:34.573Z,17.07
2018-09-20T06:09:08.390Z,16.67
2018-09-20T06:11:40.168Z,17.33
2018-09-20T06:14:11.007Z,17.40
2018-09-20T06:16:40.834Z,17.90
2018-09-20T06:19:10.623Z,20.77
2018-09-20T06:21:44.707Z,18.97
2018-09-20T06:24:26.182Z,19.23
2018-09-20T06:27:20.106Z,19.57
2018-09-20T06:29:55.590Z,18.47
2018-09-20T06:32:26.579Z,19.63
2018-09-20T06:35:01.295Z,20.50
2018-09-20T06:37:47.288Z,19.00
2018-09-20T06:40:22.495Z,17.43
2018-09-20T06:43:21.098Z,17.60
2018-09-20T06:45:56.346Z,19.37
2018-09-20T06:48:27.176Z,19.23
2018-09-20T06:51:11.398Z,19.60
2018-09-20T06:53:54.218Z,18.13
2018-09-20T06:56:34.781Z,18.20
2018-09-20T06:59:06.559Z,17.17
2018-09-20T07:01:40.171Z,17.37
2018-09-20T07:04:09.959Z,17.93
2018-09-20T07:06:45.731Z,18.50
2018-09-20T07:09:23.647Z,17.43
2018-09-20T07:11:55.431Z,16.83
2018-09-20T07:14:27.175Z,18.60
2018-09-20T07:17:00.771Z,16.20
2018-09-20T07:19:40.575Z,17.90
2018-09-20T07:22:10.370Z,16.23
2018-09-20T07:24:52.475Z,16.97
2018-09-20T07:27:27.075Z,15.40
2018-09-20T07:29:56.823Z,16.90
2018-09-20T07:32:27.711Z,14.60
2018-09-20T07:34:57.494Z,14.70
2018-09-20T07:37:27.382Z,15.40
2018-09-20T07:40:04.791Z,17.07
2018-09-20T07:42:44.822Z,16.90
2018-09-20T07:45:15.571Z,16.77
2018-09-20T07:48:16.798Z,16.50
2018-09-20T07:51:05.894Z,15.77
2018-09-20T07:59:40.399Z,14.33
2018-09-20T08:02:16.358Z,14.20
2018-09-20T08:04:48.099Z,13.63
2018-09-20T08:07:23.399Z,14.50
2018-09-20T08:09:57.498Z,13.67
2018-09-20T08:12:28.114Z,13.80
2018-09-20T08:15:03.830Z,12.70
2018-09-20T08:17:53.316Z,13.83
2018-09-20T08:20:28.502Z,14.40
2018-09-20T08:23:03.587Z,14.83
2018-09-20T08:25:53.018Z,13.90
2018-09-20T08:28:53.142Z,14.43
2018-09-20T08:31:27.734Z,14.80
2018-09-20T08:34:03.517Z,13.73
2018-09-20T08:36:40.730Z,14.50
2018-09-20T08:39:15.160Z,12.20
2018-09-20T08:41:57.919Z,13.73
2018-09-20T08:44:27.707Z,13.23
2018-09-20T08:47:17.030Z,13.50
2018-09-20T08:49:46.798Z,14.00
2018-09-20T08:52:26.994Z,13.80
2018-09-20T08:55:00.814Z,14.63
2018-09-20T08:57:43.634Z,13.73
2018-09-20T09:00:21.170Z,13.00
2018-09-20T09:02:51.057Z,13.93
2018-09-20T09:05:26.554Z,15.00
2018-09-20T09:08:00.694Z,13.93
2018-09-20T09:10:40.227Z,13.90
2018-09-20T09:13:09.986Z,14.03
2018-09-20T09:15:39.854Z,13.17
2018-09-20T09:18:09.917Z,12.97
2018-09-20T09:20:45.766Z,13.73
2018-09-20T09:23:17.146Z,14.93
2018-09-20T09:25:50.773Z,13.90
2018-09-20T09:28:27.705Z,13.17
2018-09-20T09:30:59.490Z,14.20
2018-09-20T09:33:29.357Z,12.57
2018-09-20T09:36:03.666Z,12.60
2018-09-20T09:38:33.506Z,13.13
2018-09-20T09:41:04.350Z,14.27
2018-09-20T09:43:35.202Z,12.60
2018-09-20T09:46:04.978Z,13.60
2018-09-20T09:48:34.831Z,11.80
2018-09-20T09:51:27.378Z,11.70
2018-09-20T09:54:05.182Z,11.67
2018-09-20T09:56:38.778Z,10.13
2018-09-20T09:59:09.526Z,11.03
2018-09-20T10:04:47.061Z,9.90
2018-09-20T10:07:26.499Z,9.80
2018-09-20T10:09:57.242Z,10.53
2018-09-20T10:12:28.038Z,10.80
2018-09-20T10:15:12.248Z,8.87
2018-09-20T10:17:41.974Z,7.73
2018-09-20T10:20:23.811Z,7.97
2018-09-20T10:22:53.586Z,8.03
2018-09-20T10:25:24.430Z,6.50
2018-09-20T10:27:54.254Z,6.23
2018-09-20T10:30:27.647Z,5.40
2018-09-20T10:36:05.570Z,6.47
2018-09-20T10:38:35.338Z,6.20
2018-09-20T10:41:11.174Z,6.93
2018-09-20T10:43:40.932Z,6.03
2018-09-20T10:46:26.698Z,5.73
2018-09-20T10:49:10.322Z,5.40
2018-09-20T10:51:40.747Z,6.10
2018-09-20T10:54:10.516Z,6.00
2018-09-20T10:56:40.343Z,5.53
2018-09-20T10:59:12.167Z,5.40
2018-09-20T11:01:43.031Z,5.80
2018-09-20T11:04:25.071Z,6.27
2018-09-20T11:06:54.923Z,7.53
2018-09-20T11:09:27.931Z,5.33
2018-09-20T11:11:59.104Z,5.80
2018-09-20T11:14:28.855Z,5.00
2018-09-20T11:17:02.791Z,5.30
2018-09-20T11:19:33.603Z,5.77
2018-09-20T11:22:05.711Z,5.40
2018-09-20T11:24:35.482Z,5.50
2018-09-20T11:27:08.530Z,5.40
2018-09-20T11:29:39.283Z,4.37
2018-09-20T11:32:15.203Z,4.30
2018-09-20T11:34:45.091Z,4.90
2018-09-20T11:37:19.663Z,5.57
2018-09-20T11:39:49.542Z,5.13
2018-09-20T11:42:23.226Z,5.47
2018-09-20T11:44:58.011Z,4.30
2018-09-20T11:47:29.806Z,5.53
2018-09-20T11:50:01.679Z,5.50
2018-09-20T11:52:33.518Z,5.10
2018-09-20T11:55:05.430Z,5.40
2018-09-20T11:57:39.802Z,4.77
2018-09-20T12:00:10.719Z,4.60
2018-09-20T12:02:41.251Z,4.80
2018-09-20T12:05:11.267Z,5.70
2018-09-20T12:07:49.442Z,4.47
2018-09-20T12:10:20.267Z,4.60
2018-09-20T12:13:02.482Z,4.37
2018-09-20T12:15:35.575Z,4.53
2018-09-20T12:18:07.342Z,4.40
2018-09-20T12:20:49.379Z,4.50
2018-09-20T12:23:23.402Z,4.53
2018-09-20T12:25:53.293Z,4.23
2018-09-20T12:28:28.102Z,4.30
2018-09-20T12:31:08.542Z,4.00
2018-09-20T12:33:38.410Z,4.50
2018-09-20T12:36:08.571Z,4.10
2018-09-20T12:38:42.720Z,4.50
2018-09-20T12:41:12.582Z,4.70
2018-09-20T12:43:43.359Z,3.97
2018-09-20T12:46:17.467Z,5.03
2018-09-20T12:48:47.334Z,5.10
2018-09-20T12:51:18.165Z,4.60
2018-09-20T12:53:53.594Z,4.10
2018-09-20T12:56:26.930Z,4.03
2018-09-20T12:59:01.782Z,4.40
2018-09-20T13:01:38.796Z,4.03
2018-09-20T13:04:08.608Z,4.37
2018-09-20T13:06:38.418Z,4.63
2018-09-20T13:09:09.949Z,4.10
2018-09-20T13:11:46.253Z,4.63
2018-09-20T13:14:16.029Z,4.87
2018-09-20T13:16:48.838Z,4.23
2018-09-20T13:19:19.654Z,4.20
2018-09-20T13:21:49.526Z,4.10
2018-09-20T13:24:21.370Z,3.60
2018-09-20T13:26:52.193Z,4.10
2018-09-20T13:29:22.986Z,4.37
2018-09-20T13:31:52.844Z,4.10
2018-09-20T13:34:23.657Z,3.73
2018-09-20T13:37:03.502Z,4.13
2018-09-20T13:43:21.314Z,4.43
2018-09-20T13:45:56.306Z,4.10
2018-09-20T13:48:26.126Z,4.67
2018-09-20T13:53:57.037Z,3.87
2018-09-20T13:56:27.990Z,4.40
2018-09-20T13:58:58.717Z,4.70
2018-09-20T14:01:28.471Z,4.13
2018-09-20T14:03:59.293Z,4.43
2018-09-20T14:06:29.073Z,3.63
2018-09-20T14:09:05.341Z,4.00
2018-09-20T14:11:36.105Z,4.33
2018-09-20T14:14:09.273Z,4.50
2018-09-20T14:16:43.917Z,4.50
2018-09-20T14:19:13.704Z,4.10
2018-09-20T14:21:45.557Z,4.60
2018-09-20T14:24:20.030Z,5.17
2018-09-20T14:26:49.946Z,4.77
2018-09-20T14:29:20.745Z,4.90
2018-09-20T14:31:51.560Z,4.33
2018-09-20T14:34:24.644Z,4.20
2018-09-20T14:36:56.408Z,4.10
2018-09-20T14:39:28.268Z,4.30
2018-09-20T14:41:58.048Z,4.30
2018-09-20T14:44:29.809Z,4.90
2018-09-20T14:47:05.477Z,4.90
2018-09-20T14:49:36.236Z,4.53
2018-09-20T14:52:07.125Z,4.80
2018-09-20T14:54:36.885Z,4.50
2018-09-20T14:57:08.717Z,5.00
2018-09-20T14:59:40.493Z,4.67
2018-09-20T15:02:10.348Z,4.23
2018-09-20T15:04:42.182Z,4.70
2018-09-20T15:07:14.031Z,4.90
2018-09-20T15:09:50.227Z,4.40
2018-09-20T15:12:21.229Z,4.50
2018-09-20T15:14:54.415Z,5.07
2018-09-20T15:17:25.250Z,4.70
2018-09-20T15:19:55.117Z,4.43
2018-09-20T15:22:25.902Z,4.47
2018-09-20T15:25:01.881Z,3.87
2018-09-20T15:27:35.549Z,4.37
2018-09-20T15:30:09.454Z,4.13
2018-09-20T15:32:43.559Z,4.37
2018-09-20T15:35:24.502Z,4.30
2018-09-20T15:37:56.342Z,4.00
2018-09-20T15:40:29.122Z,4.47
2018-09-20T15:42:59.906Z,4.63
2018-09-20T15:45:29.658Z,4.63
2018-09-20T15:48:03.590Z,4.80
2018-09-20T15:50:35.415Z,4.20
2018-09-20T15:53:07.338Z,3.87
2018-09-20T15:55:38.226Z,4.57
2018-09-20T15:58:09.098Z,3.93
2018-09-20T16:00:38.843Z,5.03
2018-09-20T16:03:08.754Z,5.03
2018-09-20T16:05:41.848Z,4.10
2018-09-20T16:08:11.694Z,4.23
2018-09-20T16:10:49.590Z,5.10
2018-09-20T16:13:29.754Z,4.33
2018-09-20T16:16:00.866Z,4.53
2018-09-20T16:18:31.026Z,4.80
2018-09-20T16:21:01.826Z,4.83
2018-09-20T16:23:32.826Z,4.33
2018-09-20T16:26:06.295Z,4.40
2018-09-20T16:29:57.794Z,4.70
2018-09-20T16:32:49.918Z,4.77
2018-09-20T16:36:03.890Z,4.13
2018-09-20T16:42:07.326Z,4.73
2018-09-20T16:44:37.209Z,4.93
2018-09-20T16:47:08.062Z,4.77
2018-09-20T16:49:37.838Z,5.63
2018-09-20T16:52:07.906Z,6.40
2018-09-20T16:54:39.962Z,5.40
2018-09-20T16:57:15.209Z,5.10
2018-09-20T16:59:46.018Z,5.47
2018-09-20T17:02:17.857Z,5.00
2018-09-20T17:04:47.674Z,6.20
2018-09-20T17:07:17.557Z,5.47
2018-09-20T17:09:47.394Z,4.90
2018-09-20T17:12:17.308Z,5.07
2018-09-20T17:14:47.174Z,5.80
2018-09-20T17:17:16.951Z,5.37
2018-09-20T17:19:46.774Z,5.50
2018-09-20T17:22:16.598Z,5.53
2018-09-20T17:24:46.894Z,5.70
2018-09-20T17:27:21.529Z,4.80
2018-09-20T17:29:52.394Z,5.53
2018-09-20T17:32:22.330Z,4.97
2018-09-20T17:34:53.484Z,5.63
2018-09-20T17:37:25.814Z,5.03
2018-09-20T17:39:59.030Z,7.30
2018-09-20T17:42:31.173Z,5.10
2018-09-20T17:45:12.542Z,4.70
2018-09-20T17:47:46.122Z,5.23
2018-09-20T17:50:17.006Z,5.67
2018-09-20T17:52:49.410Z,5.50
2018-09-20T17:55:20.862Z,4.67
2018-09-20T17:57:53.466Z,5.57
2018-09-20T18:00:24.826Z,5.10
2018-09-20T18:02:55.117Z,4.67
2018-09-20T18:05:25.986Z,4.83
2018-09-20T18:07:58.929Z,5.27
2018-09-20T18:10:29.782Z,5.20
2018-09-20T18:13:00.886Z,6.13
2018-09-20T18:15:30.724Z,5.37
2018-09-20T18:18:00.736Z,5.40
2018-09-20T18:20:30.364Z,5.80
2018-09-20T18:23:01.190Z,5.33
2018-09-20T18:25:35.126Z,6.17
2018-09-20T18:28:09.192Z,5.70
2018-09-20T18:30:41.037Z,5.23
2018-09-20T18:33:13.338Z,5.73
2018-09-20T18:35:43.153Z,4.70
2018-09-20T18:38:14.034Z,5.90
2018-09-20T18:40:43.953Z,5.87
2018-09-20T18:43:17.318Z,6.27
2018-09-20T18:45:49.166Z,6.37
2018-09-20T18:48:18.976Z,6.43
2018-09-20T18:50:49.837Z,6.50
2018-09-20T18:53:23.661Z,6.53
2018-09-20T18:55:53.419Z,6.60
2018-09-20T18:58:24.305Z,6.30
2018-09-20T19:00:55.129Z,6.30
2018-09-20T19:03:25.945Z,7.07
2018-09-20T19:06:00.097Z,6.57
2018-09-20T19:08:29.986Z,6.60
2018-09-20T19:11:01.885Z,7.50
2018-09-20T19:13:35.098Z,6.63
2018-09-20T19:16:04.882Z,7.20
2018-09-20T19:18:36.687Z,6.30
2018-09-20T19:21:07.619Z,6.53
2018-09-20T19:23:38.501Z,7.00
2018-09-20T19:26:09.317Z,8.90
2018-09-20T19:28:41.789Z,7.00
2018-09-20T19:31:11.566Z,7.80
2018-09-20T19:33:47.598Z,8.03
2018-09-20T19:36:23.298Z,6.60
2018-09-20T19:38:54.290Z,7.60
2018-09-20T19:41:25.094Z,7.57
2018-09-20T19:43:54.969Z,7.70
2018-09-20T19:46:24.790Z,7.50
2018-09-20T19:48:54.641Z,6.40
2018-09-20T19:51:25.410Z,7.10
2018-09-20T19:53:58.307Z,7.03
2018-09-20T19:56:28.185Z,6.83
2018-09-20T19:59:00.290Z,8.00
2018-09-20T20:01:30.101Z,6.83
2018-09-20T20:03:59.908Z,7.73
2018-09-20T20:06:29.744Z,7.87
2018-09-20T20:09:00.610Z,7.80
2018-09-20T20:11:30.412Z,7.80
2018-09-20T20:14:02.229Z,7.47
2018-09-20T20:16:32.040Z,8.13
2018-09-20T20:19:01.859Z,7.87
2018-09-20T20:21:31.684Z,7.83
2018-09-20T20:24:07.056Z,8.20
2018-09-20T20:26:36.932Z,7.97
2018-09-20T20:29:10.420Z,8.80
2018-09-20T20:31:40.264Z,8.03
2018-09-20T20:34:10.288Z,10.80
2018-09-20T20:36:41.094Z,8.23
2018-09-20T20:39:12.008Z,8.93
2018-09-20T20:41:41.864Z,8.53
2018-09-20T20:44:13.715Z,8.20
2018-09-20T20:46:46.611Z,8.53
2018-09-20T20:49:18.728Z,7.77
2018-09-20T20:51:53.816Z,9.00
2018-09-20T20:54:25.656Z,9.07
2018-09-20T20:56:56.496Z,8.57
2018-09-20T20:59:26.345Z,9.63
2018-09-20T21:02:00.088Z,7.97
2018-09-20T21:04:31.140Z,7.93
2018-09-20T21:07:03.022Z,8.67
2018-09-20T21:09:33.872Z,8.93
2018-09-20T21:12:03.764Z,8.33
2018-09-20T21:14:34.678Z,8.83
2018-09-20T21:17:04.524Z,8.03
2018-09-20T21:19:34.310Z,8.50
2018-09-20T21:22:04.144Z,9.37
2018-09-20T21:24:34.312Z,9.13
2018-09-20T21:27:04.199Z,8.83
2018-09-20T21:29:34.033Z,8.40
2018-09-20T21:32:04.825Z,7.60
2018-09-20T21:34:35.645Z,7.40
2018-09-20T21:37:06.413Z,7.50
2018-09-20T21:39:37.213Z,7.50
2018-09-20T21:42:07.047Z,8.30
2018-09-20T21:44:36.841Z,7.73
2018-09-20T21:47:10.641Z,8.40
2018-09-20T21:49:40.437Z,7.50
2018-09-20T21:52:11.358Z,8.33
2018-09-20T21:54:46.229Z,8.40
2018-09-20T21:57:17.618Z,7.73
2018-09-20T21:59:47.493Z,7.30
2018-09-20T22:02:23.690Z,7.20
2018-09-20T22:04:54.457Z,8.20
2018-09-20T22:07:25.325Z,6.93
2018-09-20T22:09:57.159Z,7.97
2018-09-20T22:12:27.013Z,8.43
2018-09-20T22:14:57.865Z,7.80
2018-09-20T22:17:29.578Z,8.90
2018-09-20T22:19:59.393Z,8.90
2018-09-20T22:22:30.261Z,7.43
2018-09-20T22:25:01.059Z,8.63
2018-09-20T22:27:30.911Z,8.43
2018-09-20T22:30:00.679Z,9.60
2018-09-20T22:32:30.517Z,8.97
2018-09-20T22:35:00.305Z,8.47
2018-09-20T22:37:30.109Z,9.00
2018-09-20T22:40:05.585Z,8.00
2018-09-20T22:42:36.393Z,8.90
2018-09-20T22:45:06.245Z,9.37
2018-09-20T22:47:38.080Z,7.87
2018-09-20T22:50:11.988Z,8.83
2018-09-20T22:52:43.817Z,8.50
2018-09-20T22:55:13.667Z,8.50
2018-09-20T22:57:44.477Z,8.67
2018-09-20T23:00:17.009Z,8.80
2018-09-20T23:02:48.925Z,8.90
2018-09-20T23:05:18.717Z,9.43
2018-09-20T23:07:55.025Z,8.50
2018-09-20T23:10:25.841Z,9.20
2018-09-20T23:12:55.685Z,9.00
2018-09-20T23:15:28.565Z,9.17
2018-09-20T23:17:58.441Z,8.90
2018-09-20T23:20:28.294Z,9.57
2018-09-20T23:22:58.206Z,9.70
2018-09-20T23:25:28.080Z,8.53
2018-09-20T23:27:59.009Z,9.07
2018-09-20T23:30:28.870Z,9.20
2018-09-20T23:32:58.737Z,9.20
2018-09-20T23:35:28.577Z,8.83
2018-09-20T23:37:59.393Z,8.70
2018-09-20T23:40:29.218Z,9.10
2018-09-20T23:43:00.049Z,8.67
2018-09-20T23:45:30.861Z,9.53
2018-09-20T23:48:02.741Z,8.40
2018-09-20T23:50:32.677Z,8.83
2018-09-20T23:53:03.505Z,9.20
2018-09-20T23:55:34.333Z,8.87
2018-09-20T23:58:05.183Z,10.00
